sensor_id;sensor_type;location;lat;lon;timestamp;pressure;altitude;pressure_sealevel;temperature;humidity
33949;BME280;20229;49.856;19.030;2023-02-28T00:01:06;102850.98;;;0.60;72.46
33949;BME280;20229;49.856;19.030;2023-02-28T00:06:20;102847.33;;;0.57;72.18
33949;BME280;20229;49.856;19.030;2023-02-28T00:11:34;102849.07;;;0.55;72.23
33949;BME280;20229;49.856;19.030;2023-02-28T00:16:48;102861.68;;;0.59;72.29
33949;BME280;20229;49.856;19.030;2023-02-28T00:22:02;102863.48;;;0.60;72.34
33949;BME280;20229;49.856;19.030;2023-02-28T00:27:15;102867.05;;;0.59;72.21
33949;BME280;20229;49.856;19.030;2023-02-28T00:32:29;102853.66;;;0.60;72.44
33949;BME280;20229;49.856;19.030;2023-02-28T00:37:43;102858.91;;;0.54;72.79
33949;BME280;20229;49.856;19.030;2023-02-28T00:42:57;102858.85;;;0.51;72.82
33949;BME280;20229;49.856;19.030;2023-02-28T00:48:11;102852.64;;;0.54;72.55
33949;BME280;20229;49.856;19.030;2023-02-28T00:53:25;102851.73;;;0.53;72.98
33949;BME280;20229;49.856;19.030;2023-02-28T00:58:39;102843.63;;;0.52;73.09
33949;BME280;20229;49.856;19.030;2023-02-28T01:03:53;102831.07;;;0.51;72.91
33949;BME280;20229;49.856;19.030;2023-02-28T01:09:07;102822.89;;;0.44;72.80
33949;BME280;20229;49.856;19.030;2023-02-28T01:14:21;102821.84;;;0.36;72.79
33949;BME280;20229;49.856;19.030;2023-02-28T01:19:35;102817.10;;;0.24;73.16
33949;BME280;20229;49.856;19.030;2023-02-28T01:24:49;102822.31;;;0.15;73.43
33949;BME280;20229;49.856;19.030;2023-02-28T01:30:04;102820.52;;;0.14;73.44
33949;BME280;20229;49.856;19.030;2023-02-28T01:35:18;102823.20;;;0.14;73.77
33949;BME280;20229;49.856;19.030;2023-02-28T01:40:32;102828.53;;;0.13;74.06
33949;BME280;20229;49.856;19.030;2023-02-28T01:45:46;102817.79;;;0.13;73.90
33949;BME280;20229;49.856;19.030;2023-02-28T01:51:05;102814.19;;;0.11;74.08
33949;BME280;20229;49.856;19.030;2023-02-28T01:56:24;102809.70;;;0.11;74.32
33949;BME280;20229;49.856;19.030;2023-02-28T02:01:40;102806.12;;;0.11;74.98
33949;BME280;20229;49.856;19.030;2023-02-28T02:06:54;102807.88;;;0.10;74.60
33949;BME280;20229;49.856;19.030;2023-02-28T02:18:52;102804.21;;;0.07;75.00
33949;BME280;20229;49.856;19.030;2023-02-28T02:23:33;102806.97;;;0.10;75.10
33949;BME280;20229;49.856;19.030;2023-02-28T02:34:29;102807.77;;;0.04;75.33
33949;BME280;20229;49.856;19.030;2023-02-28T02:39:52;102800.55;;;0.02;75.66
33949;BME280;20229;49.856;19.030;2023-02-28T02:45:21;102796.00;;;-0.03;75.51
33949;BME280;20229;49.856;19.030;2023-02-28T02:50:35;102804.73;;;-0.13;75.62
33949;BME280;20229;49.856;19.030;2023-02-28T02:55:52;102804.45;;;-0.25;75.71
33949;BME280;20229;49.856;19.030;2023-02-28T03:01:11;102812.17;;;-0.40;76.12
33949;BME280;20229;49.856;19.030;2023-02-28T03:06:27;102817.30;;;-0.51;76.22
33949;BME280;20229;49.856;19.030;2023-02-28T03:11:41;102816.97;;;-0.66;76.77
33949;BME280;20229;49.856;19.030;2023-02-28T03:28:27;102836.67;;;-1.01;77.63
33949;BME280;20229;49.856;19.030;2023-02-28T03:44:34;102851.30;;;-1.23;78.03
33949;BME280;20229;49.856;19.030;2023-02-28T03:50:00;102840.41;;;-1.29;78.39
33949;BME280;20229;49.856;19.030;2023-02-28T03:55:17;102843.82;;;-1.34;78.30
33949;BME280;20229;49.856;19.030;2023-02-28T04:00:35;102851.74;;;-1.39;78.85
33949;BME280;20229;49.856;19.030;2023-02-28T04:05:53;102849.98;;;-1.38;78.71
33949;BME280;20229;49.856;19.030;2023-02-28T04:16:33;102854.82;;;-1.57;79.01
33949;BME280;20229;49.856;19.030;2023-02-28T04:21:50;102849.15;;;-1.69;79.30
33949;BME280;20229;49.856;19.030;2023-02-28T04:27:04;102846.19;;;-1.78;79.60
33949;BME280;20229;49.856;19.030;2023-02-28T04:32:18;102852.15;;;-1.88;79.94
33949;BME280;20229;49.856;19.030;2023-02-28T04:37:31;102861.77;;;-1.95;80.29
33949;BME280;20229;49.856;19.030;2023-02-28T04:42:49;102855.26;;;-2.05;80.58
33949;BME280;20229;49.856;19.030;2023-02-28T04:48:03;102862.18;;;-2.11;80.38
33949;BME280;20229;49.856;19.030;2023-02-28T04:53:17;102857.52;;;-2.19;80.66
33949;BME280;20229;49.856;19.030;2023-02-28T04:58:32;102854.58;;;-2.26;80.96
33949;BME280;20229;49.856;19.030;2023-02-28T05:03:46;102851.63;;;-2.35;81.18
33949;BME280;20229;49.856;19.030;2023-02-28T05:09:00;102851.44;;;-2.42;81.81
33949;BME280;20229;49.856;19.030;2023-02-28T05:14:14;102857.46;;;-2.49;82.18
33949;BME280;20229;49.856;19.030;2023-02-28T05:19:28;102867.95;;;-2.55;82.60
33949;BME280;20229;49.856;19.030;2023-02-28T05:24:42;102869.59;;;-2.60;82.62
33949;BME280;20229;49.856;19.030;2023-02-28T05:29:56;102875.62;;;-2.66;84.36
33949;BME280;20229;49.856;19.030;2023-02-28T05:35:11;102880.95;;;-2.67;83.19
33949;BME280;20229;49.856;19.030;2023-02-28T05:40:25;102888.06;;;-2.68;83.28
33949;BME280;20229;49.856;19.030;2023-02-28T05:45:38;102897.78;;;-2.70;83.60
33949;BME280;20229;49.856;19.030;2023-02-28T05:50:52;102904.21;;;-2.65;83.84
33949;BME280;20229;49.856;19.030;2023-02-28T05:56:06;102913.13;;;-2.64;83.56
33949;BME280;20229;49.856;19.030;2023-02-28T06:01:33;102908.07;;;-2.55;84.26
33949;BME280;20229;49.856;19.030;2023-02-28T06:06:42;102908.34;;;-2.47;84.08
33949;BME280;20229;49.856;19.030;2023-02-28T06:12:01;102916.71;;;-2.36;84.07
33949;BME280;20229;49.856;19.030;2023-02-28T06:17:22;102925.88;;;-2.28;84.22
33949;BME280;20229;49.856;19.030;2023-02-28T06:22:36;102929.76;;;-2.19;84.97
33949;BME280;20229;49.856;19.030;2023-02-28T06:27:50;102930.93;;;-2.09;84.21
33949;BME280;20229;49.856;19.030;2023-02-28T06:33:04;102934.01;;;-1.97;84.29
33949;BME280;20229;49.856;19.030;2023-02-28T06:38:18;102936.95;;;-1.87;83.76
33949;BME280;20229;49.856;19.030;2023-02-28T06:43:35;102932.79;;;-1.78;84.88
33949;BME280;20229;49.856;19.030;2023-02-28T06:48:49;102933.94;;;-1.70;83.70
33949;BME280;20229;49.856;19.030;2023-02-28T06:54:04;102935.16;;;-1.58;83.77
33949;BME280;20229;49.856;19.030;2023-02-28T06:59:18;102947.95;;;-1.48;82.71
33949;BME280;20229;49.856;19.030;2023-02-28T07:04:32;102941.16;;;-1.35;82.57
33949;BME280;20229;49.856;19.030;2023-02-28T07:09:46;102945.22;;;-1.18;82.07
33949;BME280;20229;49.856;19.030;2023-02-28T07:14:59;102960.27;;;-0.91;81.83
33949;BME280;20229;49.856;19.030;2023-02-28T07:20:13;102963.91;;;-0.53;80.58
33949;BME280;20229;49.856;19.030;2023-02-28T07:25:28;102960.59;;;-0.07;79.40
33949;BME280;20229;49.856;19.030;2023-02-28T07:30:42;102958.83;;;0.35;78.35
33949;BME280;20229;49.856;19.030;2023-02-28T07:41:21;102968.70;;;1.25;74.67
33949;BME280;20229;49.856;19.030;2023-02-28T07:46:38;102959.44;;;2.87;70.64
33949;BME280;20229;49.856;19.030;2023-02-28T07:51:52;102958.27;;;5.40;61.16
33949;BME280;20229;49.856;19.030;2023-02-28T07:57:05;102952.80;;;6.38;58.36
33949;BME280;20229;49.856;19.030;2023-02-28T08:02:19;102953.47;;;6.93;56.62
33949;BME280;20229;49.856;19.030;2023-02-28T08:07:34;102936.40;;;9.89;48.61
33949;BME280;20229;49.856;19.030;2023-02-28T08:12:47;102921.44;;;13.32;39.89
33949;BME280;20229;49.856;19.030;2023-02-28T08:18:01;102916.34;;;15.21;37.78
33949;BME280;20229;49.856;19.030;2023-02-28T08:23:15;102906.16;;;16.90;32.98
33949;BME280;20229;49.856;19.030;2023-02-28T08:28:29;102903.67;;;17.03;29.35
33949;BME280;20229;49.856;19.030;2023-02-28T08:33:43;102917.06;;;16.33;30.00
33949;BME280;20229;49.856;19.030;2023-02-28T08:39:06;102909.75;;;15.25;35.40
33949;BME280;20229;49.856;19.030;2023-02-28T08:44:20;102923.53;;;12.33;34.49
33949;BME280;20229;49.856;19.030;2023-02-28T08:49:34;102935.55;;;10.80;39.88
33949;BME280;20229;49.856;19.030;2023-02-28T08:54:48;102934.80;;;9.79;38.78
33949;BME280;20229;49.856;19.030;2023-02-28T09:00:02;102926.39;;;8.75;37.50
33949;BME280;20229;49.856;19.030;2023-02-28T09:05:17;102936.77;;;8.44;38.79
33949;BME280;20229;49.856;19.030;2023-02-28T09:10:31;102940.72;;;8.12;40.87
33949;BME280;20229;49.856;19.030;2023-02-28T09:15:45;102943.02;;;7.64;40.31
33949;BME280;20229;49.856;19.030;2023-02-28T09:20:59;102943.14;;;7.48;41.95
33949;BME280;20229;49.856;19.030;2023-02-28T09:30:17;102941.56;;;7.13;41.78
33949;BME280;20229;49.856;19.030;2023-02-28T09:35:43;102948.23;;;6.52;41.09
33949;BME280;20229;49.856;19.030;2023-02-28T09:41:03;102936.45;;;6.56;42.77
33949;BME280;20229;49.856;19.030;2023-02-28T09:51:56;102948.28;;;6.38;42.77
33949;BME280;20229;49.856;19.030;2023-02-28T10:08:14;102940.22;;;6.12;43.95
33949;BME280;20229;49.856;19.030;2023-02-28T10:13:45;102937.48;;;6.20;46.12
33949;BME280;20229;49.856;19.030;2023-02-28T10:19:06;102932.96;;;6.14;46.03
33949;BME280;20229;49.856;19.030;2023-02-28T10:24:29;102931.19;;;6.03;45.21
33949;BME280;20229;49.856;19.030;2023-02-28T10:29:49;102939.30;;;5.92;44.92
33949;BME280;20229;49.856;19.030;2023-02-28T10:35:15;102922.17;;;5.84;48.44
33949;BME280;20229;49.856;19.030;2023-02-28T10:40:35;102919.45;;;6.02;46.37
33949;BME280;20229;49.856;19.030;2023-02-28T10:51:18;102914.00;;;6.07;46.38
33949;BME280;20229;49.856;19.030;2023-02-28T10:56:32;102914.94;;;5.80;45.63
33949;BME280;20229;49.856;19.030;2023-02-28T11:01:47;102899.59;;;5.68;47.56
33949;BME280;20229;49.856;19.030;2023-02-28T11:12:37;102890.53;;;5.93;48.00
33949;BME280;20229;49.856;19.030;2023-02-28T11:23:18;102874.22;;;6.10;48.83
33949;BME280;20229;49.856;19.030;2023-02-28T11:28:36;102876.91;;;6.22;47.99
33949;BME280;20229;49.856;19.030;2023-02-28T11:33:55;102865.20;;;6.04;48.74
33949;BME280;20229;49.856;19.030;2023-02-28T11:39:19;102866.09;;;6.07;49.21
33949;BME280;20229;49.856;19.030;2023-02-28T11:50:38;102858.86;;;6.09;51.48
33949;BME280;20229;49.856;19.030;2023-02-28T12:01:24;102855.23;;;6.13;48.43
33949;BME280;20229;49.856;19.030;2023-02-28T12:06:49;102849.85;;;5.96;48.52
33949;BME280;20229;49.856;19.030;2023-02-28T12:29:23;102837.24;;;5.80;49.31
33949;BME280;20229;49.856;19.030;2023-02-28T12:34:29;102844.42;;;5.92;48.90
33949;BME280;20229;49.856;19.030;2023-02-28T12:39:47;102840.82;;;5.85;48.37
33949;BME280;20229;49.856;19.030;2023-02-28T12:45:10;102846.27;;;5.78;47.40
33949;BME280;20229;49.856;19.030;2023-02-28T12:50:27;102845.38;;;5.74;48.54
33949;BME280;20229;49.856;19.030;2023-02-28T12:56:02;102839.02;;;5.86;49.99
33949;BME280;20229;49.856;19.030;2023-02-28T13:06:52;102829.99;;;5.87;49.96
33949;BME280;20229;49.856;19.030;2023-02-28T13:12:12;102827.28;;;5.84;50.36
33949;BME280;20229;49.856;19.030;2023-02-28T13:17:27;102824.59;;;5.78;49.37
33949;BME280;20229;49.856;19.030;2023-02-28T13:22:46;102821.90;;;5.70;49.37
33949;BME280;20229;49.856;19.030;2023-02-28T13:28:02;102811.05;;;5.74;48.45
33949;BME280;20229;49.856;19.030;2023-02-28T13:33:25;102809.23;;;5.75;48.85
33949;BME280;20229;49.856;19.030;2023-02-28T13:38:43;102808.33;;;5.74;49.32
33949;BME280;20229;49.856;19.030;2023-02-28T13:49:28;102797.51;;;5.65;50.56
33949;BME280;20229;49.856;19.030;2023-02-28T13:54:57;102799.33;;;5.66;49.63
33949;BME280;20229;49.856;19.030;2023-02-28T14:00:54;102792.13;;;5.56;48.63
33949;BME280;20229;49.856;19.030;2023-02-28T14:11:39;102786.76;;;5.38;49.45
33949;BME280;20229;49.856;19.030;2023-02-28T14:16:54;102781.31;;;5.33;49.32
33949;BME280;20229;49.856;19.030;2023-02-28T14:22:22;102782.23;;;5.29;49.12
33949;BME280;20229;49.856;19.030;2023-02-28T14:38:35;102775.05;;;5.10;51.17
33949;BME280;20229;49.856;19.030;2023-02-28T14:43:59;102781.38;;;5.02;50.96
33949;BME280;20229;49.856;19.030;2023-02-28T14:54:40;102795.81;;;4.88;50.67
33949;BME280;20229;49.856;19.030;2023-02-28T14:59:59;102788.59;;;4.77;51.46
33949;BME280;20229;49.856;19.030;2023-02-28T15:05:26;102796.68;;;4.68;51.62
33949;BME280;20229;49.856;19.030;2023-02-28T15:11:13;102795.75;;;4.54;52.39
33949;BME280;20229;49.856;19.030;2023-02-28T15:16:37;102790.33;;;4.51;51.92
33949;BME280;20229;49.856;19.030;2023-02-28T15:22:08;102795.72;;;4.36;52.21
33949;BME280;20229;49.856;19.030;2023-02-28T15:27:22;102785.73;;;4.16;52.75
33949;BME280;20229;49.856;19.030;2023-02-28T15:32:38;102779.37;;;4.02;53.45
33949;BME280;20229;49.856;19.030;2023-02-28T15:38:11;102789.24;;;3.89;53.55
33949;BME280;20229;49.856;19.030;2023-02-28T15:43:37;102785.57;;;3.76;54.25
33949;BME280;20229;49.856;19.030;2023-02-28T15:48:43;102777.38;;;3.58;54.17
33949;BME280;20229;49.856;19.030;2023-02-28T15:54:04;102789.86;;;3.38;55.03
33949;BME280;20229;49.856;19.030;2023-02-28T15:59:26;102796.05;;;3.24;55.21
33949;BME280;20229;49.856;19.030;2023-02-28T16:10:35;102810.22;;;2.94;56.27
33949;BME280;20229;49.856;19.030;2023-02-28T16:15:49;102808.29;;;2.82;56.17
33949;BME280;20229;49.856;19.030;2023-02-28T16:21:04;102799.17;;;2.68;57.24
33949;BME280;20229;49.856;19.030;2023-02-28T16:26:23;102803.55;;;2.57;57.70
33949;BME280;20229;49.856;19.030;2023-02-28T16:31:40;102809.70;;;2.41;58.33
33949;BME280;20229;49.856;19.030;2023-02-28T16:36:54;102803.25;;;2.26;58.47
33949;BME280;20229;49.856;19.030;2023-02-28T16:42:20;102810.23;;;2.10;59.24
33949;BME280;20229;49.856;19.030;2023-02-28T16:47:32;102813.65;;;1.96;59.90
33949;BME280;20229;49.856;19.030;2023-02-28T16:52:46;102826.88;;;1.79;60.63
33949;BME280;20229;49.856;19.030;2023-02-28T16:58:02;102830.27;;;1.64;60.73
33949;BME280;20229;49.856;19.030;2023-02-28T17:03:23;102836.35;;;1.51;61.40
33949;BME280;20229;49.856;19.030;2023-02-28T17:08:38;102839.77;;;1.39;61.63
33949;BME280;20229;49.856;19.030;2023-02-28T17:13:52;102844.94;;;1.25;61.79
33949;BME280;20229;49.856;19.030;2023-02-28T17:19:13;102848.40;;;1.18;62.54
33949;BME280;20229;49.856;19.030;2023-02-28T17:24:28;102844.58;;;1.04;62.80
33949;BME280;20229;49.856;19.030;2023-02-28T17:29:42;102846.18;;;0.92;63.41
33949;BME280;20229;49.856;19.030;2023-02-28T17:34:56;102846.78;;;0.76;64.06
33949;BME280;20229;49.856;19.030;2023-02-28T17:40:16;102845.68;;;0.65;64.74
33949;BME280;20229;49.856;19.030;2023-02-28T17:45:29;102861.56;;;0.53;64.62
33949;BME280;20229;49.856;19.030;2023-02-28T17:50:43;102858.70;;;0.43;65.05
33949;BME280;20229;49.856;19.030;2023-02-28T17:55:57;102859.40;;;0.33;65.73
33949;BME280;20229;49.856;19.030;2023-02-28T18:01:11;102855.66;;;0.25;66.17
33949;BME280;20229;49.856;19.030;2023-02-28T18:06:29;102858.13;;;0.16;66.27
33949;BME280;20229;49.856;19.030;2023-02-28T18:11:45;102845.44;;;0.07;66.94
33949;BME280;20229;49.856;19.030;2023-02-28T18:17:01;102841.52;;;-0.07;67.41
33949;BME280;20229;49.856;19.030;2023-02-28T18:22:15;102844.05;;;-0.15;67.60
33949;BME280;20229;49.856;19.030;2023-02-28T18:27:29;102854.67;;;-0.21;67.92
33949;BME280;20229;49.856;19.030;2023-02-28T18:32:45;102856.25;;;-0.29;68.32
33949;BME280;20229;49.856;19.030;2023-02-28T18:38:10;102857.88;;;-0.37;68.54
33949;BME280;20229;49.856;19.030;2023-02-28T18:43:19;102858.55;;;-0.46;69.20
33949;BME280;20229;49.856;19.030;2023-02-28T18:48:34;102859.27;;;-0.53;69.20
33949;BME280;20229;49.856;19.030;2023-02-28T18:53:48;102855.56;;;-0.60;69.66
33949;BME280;20229;49.856;19.030;2023-02-28T18:59:02;102851.84;;;-0.65;70.04
33949;BME280;20229;49.856;19.030;2023-02-28T19:04:16;102846.33;;;-0.71;70.91
33949;BME280;20229;49.856;19.030;2023-02-28T19:09:30;102847.98;;;-0.78;70.91
33949;BME280;20229;49.856;19.030;2023-02-28T19:14:44;102845.16;;;-0.84;70.84
33949;BME280;20229;49.856;19.030;2023-02-28T19:19:59;102856.59;;;-0.91;71.41
33949;BME280;20229;49.856;19.030;2023-02-28T19:25:13;102851.04;;;-0.99;71.71
33949;BME280;20229;49.856;19.030;2023-02-28T19:30:27;102848.13;;;-1.06;72.65
33949;BME280;20229;49.856;19.030;2023-02-28T19:35:41;102854.26;;;-1.12;72.04
33949;BME280;20229;49.856;19.030;2023-02-28T19:41:05;102856.82;;;-1.16;72.37
33949;BME280;20229;49.856;19.030;2023-02-28T19:46:19;102851.33;;;-1.21;73.03
33949;BME280;20229;49.856;19.030;2023-02-28T19:51:34;102852.04;;;-1.28;73.26
33949;BME280;20229;49.856;19.030;2023-02-28T19:56:49;102848.34;;;-1.33;73.77
33949;BME280;20229;49.856;19.030;2023-02-28T20:02:03;102844.52;;;-1.41;73.87
33949;BME280;20229;49.856;19.030;2023-02-28T20:07:18;102848.95;;;-1.43;74.22
33949;BME280;20229;49.856;19.030;2023-02-28T20:12:32;102850.73;;;-1.44;74.64
33949;BME280;20229;49.856;19.030;2023-02-28T20:17:47;102840.82;;;-1.47;74.76
33949;BME280;20229;49.856;19.030;2023-02-28T20:23:01;102842.55;;;-1.49;74.71
33949;BME280;20229;49.856;19.030;2023-02-28T20:28:17;102832.53;;;-1.56;74.93
33949;BME280;20229;49.856;19.030;2023-02-28T20:33:31;102838.59;;;-1.63;75.00
33949;BME280;20229;49.856;19.030;2023-02-28T20:38:45;102819.69;;;-1.69;76.14
33949;BME280;20229;49.856;19.030;2023-02-28T20:43:59;102838.34;;;-1.72;75.59
33949;BME280;20229;49.856;19.030;2023-02-28T20:49:15;102832.90;;;-1.75;76.80
33949;BME280;20229;49.856;19.030;2023-02-28T20:54:29;102836.35;;;-1.79;75.59
33949;BME280;20229;49.856;19.030;2023-02-28T20:59:43;102832.63;;;-1.84;76.35
33949;BME280;20229;49.856;19.030;2023-02-28T21:04:57;102839.56;;;-1.91;76.07
33949;BME280;20229;49.856;19.030;2023-02-28T21:10:11;102835.06;;;-1.94;76.35
33949;BME280;20229;49.856;19.030;2023-02-28T21:15:24;102834.88;;;-2.00;76.73
33949;BME280;20229;49.856;19.030;2023-02-28T21:20:38;102842.71;;;-2.06;77.42
33949;BME280;20229;49.856;19.030;2023-02-28T21:25:52;102833.66;;;-2.11;77.53
33949;BME280;20229;49.856;19.030;2023-02-28T21:31:07;102836.20;;;-2.15;77.47
33949;BME280;20229;49.856;19.030;2023-02-28T21:36:24;102836.91;;;-2.21;78.14
33949;BME280;20229;49.856;19.030;2023-02-28T21:41:41;102834.11;;;-2.26;77.66
33949;BME280;20229;49.856;19.030;2023-02-28T21:46:55;102839.30;;;-2.30;78.25
33949;BME280;20229;49.856;19.030;2023-02-28T21:52:13;102840.06;;;-2.34;78.81
33949;BME280;20229;49.856;19.030;2023-02-28T21:57:27;102840.75;;;-2.42;79.47
33949;BME280;20229;49.856;19.030;2023-02-28T22:02:41;102847.73;;;-2.47;79.34
33949;BME280;20229;49.856;19.030;2023-02-28T22:07:55;102854.59;;;-2.55;80.32
33949;BME280;20229;49.856;19.030;2023-02-28T22:13:09;102843.81;;;-2.58;80.59
33949;BME280;20229;49.856;19.030;2023-02-28T22:18:23;102840.95;;;-2.64;80.34
33949;BME280;20229;49.856;19.030;2023-02-28T22:23:38;102842.75;;;-2.63;79.96
33949;BME280;20229;49.856;19.030;2023-02-28T22:28:52;102839.97;;;-2.66;80.33
33949;BME280;20229;49.856;19.030;2023-02-28T22:34:09;102840.63;;;-2.73;81.52
33949;BME280;20229;49.856;19.030;2023-02-28T22:39:23;102850.28;;;-2.78;80.72
33949;BME280;20229;49.856;19.030;2023-02-28T22:44:38;102846.59;;;-2.82;81.63
33949;BME280;20229;49.856;19.030;2023-02-28T22:49:53;102847.27;;;-2.89;81.53
33949;BME280;20229;49.856;19.030;2023-02-28T22:55:08;102849.72;;;-2.95;81.87
33949;BME280;20229;49.856;19.030;2023-02-28T23:00:22;102863.05;;;-2.97;82.14
33949;BME280;20229;49.856;19.030;2023-02-28T23:05:36;102853.05;;;-3.02;84.07
33949;BME280;20229;49.856;19.030;2023-02-28T23:10:50;102864.49;;;-3.06;82.66
33949;BME280;20229;49.856;19.030;2023-02-28T23:16:06;102859.94;;;-3.09;83.78
33949;BME280;20229;49.856;19.030;2023-02-28T23:21:20;102867.81;;;-3.14;82.53
33949;BME280;20229;49.856;19.030;2023-02-28T23:26:34;102868.60;;;-3.16;83.19
33949;BME280;20229;49.856;19.030;2023-02-28T23:31:48;102877.26;;;-3.23;83.61
33949;BME280;20229;49.856;19.030;2023-02-28T23:37:02;102878.02;;;-3.27;83.45
33949;BME280;20229;49.856;19.030;2023-02-28T23:42:16;102881.45;;;-3.31;83.24
33949;BME280;20229;49.856;19.030;2023-02-28T23:47:30;102886.67;;;-3.34;84.05
33949;BME280;20229;49.856;19.030;2023-02-28T23:52:44;102883.01;;;-3.37;83.17
33949;BME280;20229;49.856;19.030;2023-02-28T23:57:58;102881.20;;;-3.38;82.97
